Mumford, NY (14511)

5:47 PM EST on February 09, 2016 (GMT -0500)
Mumford | | Change Station
CLOSE
Current Station
Personal Weather Station
Location: Scottsville, NY
Elevation: 600 ft
Nearby Weather Stations

Elev 600 ft 43.00 °N, 77.85 °W | Updated 4 seconds ago

Overcast
Overcast
36.0 °F
Feels Like 32 °F
N
4.5
Wind Variable Wind from West
Gusts 4.9 mph

Today
High -- | Low -- °F
--% Chance of Precip.
Yesterday
High -- | Low -- °F
Precip. -- in
Pressure 29.53 in
Visibility 10.0 miles
Clouds Few 900 ft
Scattered Clouds 2700 ft
Mostly Cloudy 3500 ft
Mostly Cloudy 20000 ft
Windchill 32 °F
Dew Point 23 °F
Humidity 58%
Rainfall 0.05 in
Snow Depth Not available.
7:17 AM 5:34 PM
New Moon, 2% visible
METAR KROC 092154Z 29009KT 10SM FEW009 SCT027 BKN035 BKN200 03/M03 A2951 RMK AO2 SLP000 SCT V BKN T00331033
Pressure 29.53 in
Visibility 10.0 miles
Clouds Few 900 ft
Scattered Clouds 2700 ft
Mostly Cloudy 3500 ft
Mostly Cloudy 20000 ft
Windchill 32 °F
Dew Point 23 °F
Humidity 58%
Rainfall 0.05 in
Snow Depth Not available.
7:17 AM 5:34 PM
New Moon, 2% visible
METAR KROC 092154Z 29009KT 10SM FEW009 SCT027 BKN035 BKN200 03/M03 A2951 RMK AO2 SLP000 SCT V BKN T00331033

10-Day Weather Forecast

Almanac

Astronomy

Feb. 09, 2016 Rise Set
Actual Time
Civil Twilight
Nautical Twilight
Astronomical Twilight
Moon
Length of Visible Light
Length of Day
Tomorrow will be .
, % of the Moon is Illuminated

Today's Extremes

State Highs State Lows

Community

WunderPhotos

Upload Photos

1,891,725 photos uploaded!

WunderBlog® & News

Nearby

Air Quality

  Air Quality AQ Index Pollutant
Not available.

Snow Depth

Station Depth Elevation

Earthquake Activity

City Distance Mag. Time & Date
Minimum magnitude displayed is 2.5.

Coastal Water Temperatures

Place Temperature

Stations

Nearby Weather Stations

Station Location Temp. Windchill Dew Point Humidity Wind Precip. Elev Updated Type
                   

Watches & Warnings

There are currently no watches in effect.